KDCU/DCU METAR and TAF weather

Enter ICAO airport designator
Station Type Date Time Source
KDCU METAR 2021/09/27 06:53 UTC NOAA

KDCU 270653Z AUTO 00000KT 4SM BR CLR 13/13 A3012 RMK AO2 SLP195 T01330128


Station Type Date Time Source
KDCU Decoded METAR 2021/09/27 06:53 UTC NOAA

PRYOR FIELD, AL, United States (KDCU) 34-39N 086-57W 176M
Sep 27, 2021 - 02:53 AM EDT / 2021.09.27 0653 UTC
Wind: Calm:0
Visibility: 4 mile(s):0
Sky conditions: clear
Weather: mist
Temperature: 55.9 F (13.3 C)
Dew Point: 55.0 F (12.8 C)
Relative Humidity: 96%
Pressure (altimeter): 30.12 in. Hg (1019 hPa)
ob: KDCU 270653Z AUTO 00000KT 4SM BR CLR 13/13 A3012 RMK AO2 SLP195 T01330128
cycle: 7

Station Type Date Time Source
KDCU TAF UTC NOAA

Error!

Example: see airport list